sensor_id;sensor_type;location;lat;lon;timestamp;pressure;altitude;pressure_sealevel;temperature;humidity
43707;BME280;61348;53.392;-6.248;2023-05-03T00:00:28;101750.94;;;11.64;84.24
43707;BME280;61348;53.392;-6.248;2023-05-03T00:02:54;101753.38;;;11.66;84.18
43707;BME280;61348;53.392;-6.248;2023-05-03T00:05:24;101746.88;;;11.61;84.31
43707;BME280;61348;53.392;-6.248;2023-05-03T00:07:51;101748.34;;;11.59;84.34
43707;BME280;61348;53.392;-6.248;2023-05-03T00:10:18;101741.50;;;11.56;84.48
43707;BME280;61348;53.392;-6.248;2023-05-03T00:12:45;101745.88;;;11.57;84.74
43707;BME280;61348;53.392;-6.248;2023-05-03T00:15:11;101746.03;;;11.61;84.50
43707;BME280;61348;53.392;-6.248;2023-05-03T00:17:38;101749.00;;;11.65;84.56
43707;BME280;61348;53.392;-6.248;2023-05-03T00:20:06;101750.28;;;11.67;84.36
43707;BME280;61348;53.392;-6.248;2023-05-03T00:22:33;101749.13;;;11.68;84.45
43707;BME280;61348;53.392;-6.248;2023-05-03T00:25:01;101751.75;;;11.65;84.54
43707;BME280;61348;53.392;-6.248;2023-05-03T00:27:27;101754.53;;;11.65;84.53
43707;BME280;61348;53.392;-6.248;2023-05-03T00:29:54;101749.31;;;11.63;84.69
43707;BME280;61348;53.392;-6.248;2023-05-03T00:32:21;101746.38;;;11.59;84.77
43707;BME280;61348;53.392;-6.248;2023-05-03T00:34:55;101745.88;;;11.57;84.90
43707;BME280;61348;53.392;-6.248;2023-05-03T00:37:23;101739.50;;;11.57;84.78
43707;BME280;61348;53.392;-6.248;2023-05-03T00:39:51;101740.31;;;11.57;84.87
43707;BME280;61348;53.392;-6.248;2023-05-03T00:42:18;101750.78;;;11.60;84.88
43707;BME280;61348;53.392;-6.248;2023-05-03T00:44:45;101740.16;;;11.62;84.68
43707;BME280;61348;53.392;-6.248;2023-05-03T00:47:12;101743.75;;;11.63;84.76
43707;BME280;61348;53.392;-6.248;2023-05-03T00:49:39;101735.91;;;11.65;84.73
43707;BME280;61348;53.392;-6.248;2023-05-03T00:52:07;101732.81;;;11.67;84.67
43707;BME280;61348;53.392;-6.248;2023-05-03T00:54:35;101741.66;;;11.69;84.73
43707;BME280;61348;53.392;-6.248;2023-05-03T00:57:03;101736.94;;;11.69;84.85
43707;BME280;61348;53.392;-6.248;2023-05-03T00:59:31;101739.38;;;11.71;84.79
43707;BME280;61348;53.392;-6.248;2023-05-03T01:02:00;101729.91;;;11.72;85.05
43707;BME280;61348;53.392;-6.248;2023-05-03T01:04:27;101729.91;;;11.72;84.96
43707;BME280;61348;53.392;-6.248;2023-05-03T01:07:09;101720.28;;;11.69;85.08
43707;BME280;61348;53.392;-6.248;2023-05-03T01:15:38;101716.03;;;11.72;85.34
43707;BME280;61348;53.392;-6.248;2023-05-03T01:18:11;101718.00;;;11.71;85.54
43707;BME280;61348;53.392;-6.248;2023-05-03T01:20:46;101719.94;;;11.71;85.41
43707;BME280;61348;53.392;-6.248;2023-05-03T01:23:20;101713.59;;;11.70;85.43
43707;BME280;61348;53.392;-6.248;2023-05-03T01:25:53;101711.63;;;11.71;85.65
43707;BME280;61348;53.392;-6.248;2023-05-03T01:28:20;101709.34;;;11.73;85.36
43707;BME280;61348;53.392;-6.248;2023-05-03T01:30:49;101709.34;;;11.73;85.44
43707;BME280;61348;53.392;-6.248;2023-05-03T01:33:48;101708.38;;;11.69;85.46
43707;BME280;61348;53.392;-6.248;2023-05-03T01:36:22;101714.06;;;11.63;85.03
43707;BME280;61348;53.392;-6.248;2023-05-03T01:38:52;101706.41;;;11.60;84.79
43707;BME280;61348;53.392;-6.248;2023-05-03T01:41:21;101694.00;;;11.58;85.06
43707;BME280;61348;53.392;-6.248;2023-05-03T01:43:50;101702.66;;;11.56;85.07
43707;BME280;61348;53.392;-6.248;2023-05-03T01:46:19;101702.66;;;11.56;84.95
43707;BME280;61348;53.392;-6.248;2023-05-03T01:48:46;101696.94;;;11.53;84.82
43707;BME280;61348;53.392;-6.248;2023-05-03T01:51:13;101701.19;;;11.50;85.04
43707;BME280;61348;53.392;-6.248;2023-05-03T01:53:40;101697.59;;;11.50;85.15
43707;BME280;61348;53.392;-6.248;2023-05-03T01:56:07;101696.78;;;11.49;85.17
43707;BME280;61348;53.392;-6.248;2023-05-03T01:58:34;101694.00;;;11.49;85.23
43707;BME280;61348;53.392;-6.248;2023-05-03T02:01:03;101700.19;;;11.46;85.42
43707;BME280;61348;53.392;-6.248;2023-05-03T02:03:31;101685.84;;;11.44;85.50
43707;BME280;61348;53.392;-6.248;2023-05-03T02:05:57;101677.22;;;11.46;85.52
43707;BME280;61348;53.392;-6.248;2023-05-03T02:08:24;101683.56;;;11.46;85.50
43707;BME280;61348;53.392;-6.248;2023-05-03T02:10:51;101675.59;;;11.45;85.73
43707;BME280;61348;53.392;-6.248;2023-05-03T02:13:17;101682.59;;;11.42;85.64
43707;BME280;61348;53.392;-6.248;2023-05-03T02:15:44;101678.69;;;11.43;86.07
43707;BME280;61348;53.392;-6.248;2023-05-03T02:18:11;101679.50;;;11.44;85.88
43707;BME280;61348;53.392;-6.248;2023-05-03T02:20:37;101673.63;;;11.45;85.82
43707;BME280;61348;53.392;-6.248;2023-05-03T02:23:04;101684.38;;;11.47;85.85
43707;BME280;61348;53.392;-6.248;2023-05-03T02:25:31;101682.78;;;11.46;86.08
43707;BME280;61348;53.392;-6.248;2023-05-03T02:27:58;101685.22;;;11.47;85.89
43707;BME280;61348;53.392;-6.248;2023-05-03T02:30:25;101682.78;;;11.46;85.70
43707;BME280;61348;53.392;-6.248;2023-05-03T02:32:51;101677.06;;;11.42;86.11
43707;BME280;61348;53.392;-6.248;2023-05-03T02:35:18;101682.94;;;11.41;86.04
43707;BME280;61348;53.392;-6.248;2023-05-03T02:37:45;101680.97;;;11.41;86.34
43707;BME280;61348;53.392;-6.248;2023-05-03T02:40:11;101681.78;;;11.42;86.38
43707;BME280;61348;53.392;-6.248;2023-05-03T02:42:39;101674.94;;;11.39;86.18
43707;BME280;61348;53.392;-6.248;2023-05-03T02:45:06;101678.38;;;11.36;86.05
43707;BME280;61348;53.392;-6.248;2023-05-03T02:47:33;101677.72;;;11.31;86.39
43707;BME280;61348;53.392;-6.248;2023-05-03T02:50:00;101678.88;;;11.30;86.21
43707;BME280;61348;53.392;-6.248;2023-05-03T02:52:27;101671.03;;;11.23;86.40
43707;BME280;61348;53.392;-6.248;2023-05-03T02:54:54;101668.91;;;11.20;86.51
43707;BME280;61348;53.392;-6.248;2023-05-03T02:57:21;101675.44;;;11.16;86.55
43707;BME280;61348;53.392;-6.248;2023-05-03T02:59:48;101671.38;;;11.13;86.79
43707;BME280;61348;53.392;-6.248;2023-05-03T03:02:14;101667.63;;;11.09;86.78
43707;BME280;61348;53.392;-6.248;2023-05-03T03:04:41;101665.81;;;11.05;86.69
43707;BME280;61348;53.392;-6.248;2023-05-03T03:07:08;101652.97;;;11.00;86.89
43707;BME280;61348;53.392;-6.248;2023-05-03T03:09:34;101670.22;;;10.97;87.00
43707;BME280;61348;53.392;-6.248;2023-05-03T03:12:02;101660.31;;;10.96;87.28
43707;BME280;61348;53.392;-6.248;2023-05-03T03:14:29;101663.06;;;10.96;87.07
43707;BME280;61348;53.392;-6.248;2023-05-03T03:16:56;101667.47;;;10.97;87.13
43707;BME280;61348;53.392;-6.248;2023-05-03T03:19:23;101662.56;;;10.94;87.29
43707;BME280;61348;53.392;-6.248;2023-05-03T03:21:50;101671.69;;;10.94;87.26
43707;BME280;61348;53.392;-6.248;2023-05-03T03:24:17;101672.81;;;10.93;87.25
43707;BME280;61348;53.392;-6.248;2023-05-03T03:26:43;101664.50;;;10.93;87.59
43707;BME280;61348;53.392;-6.248;2023-05-03T03:29:10;101667.63;;;10.92;87.53
43707;BME280;61348;53.392;-6.248;2023-05-03T03:31:37;101661.25;;;10.91;87.78
43707;BME280;61348;53.392;-6.248;2023-05-03T03:34:04;101667.63;;;10.92;87.80
43707;BME280;61348;53.392;-6.248;2023-05-03T03:36:30;101665.19;;;10.90;87.83
43707;BME280;61348;53.392;-6.248;2023-05-03T03:38:57;101663.53;;;10.89;87.95
43707;BME280;61348;53.392;-6.248;2023-05-03T03:41:24;101666.13;;;10.86;88.14
43707;BME280;61348;53.392;-6.248;2023-05-03T03:43:51;101659.28;;;10.83;87.95
43707;BME280;61348;53.392;-6.248;2023-05-03T03:46:17;101662.41;;;10.82;88.17
43707;BME280;61348;53.392;-6.248;2023-05-03T03:48:44;101652.94;;;10.83;88.08
43707;BME280;61348;53.392;-6.248;2023-05-03T03:51:11;101654.91;;;10.82;88.23
43707;BME280;61348;53.392;-6.248;2023-05-03T03:53:37;101652.94;;;10.83;88.43
43707;BME280;61348;53.392;-6.248;2023-05-03T03:56:04;101653.44;;;10.85;88.50
43707;BME280;61348;53.392;-6.248;2023-05-03T03:58:31;101653.09;;;10.86;88.51
43707;BME280;61348;53.392;-6.248;2023-05-03T04:00:58;101652.28;;;10.86;88.66
43707;BME280;61348;53.392;-6.248;2023-05-03T04:03:28;101652.47;;;10.89;88.83
43707;BME280;61348;53.392;-6.248;2023-05-03T04:05:55;101649.34;;;10.91;88.96
43707;BME280;61348;53.392;-6.248;2023-05-03T04:08:21;101650.34;;;10.95;88.92
43707;BME280;61348;53.392;-6.248;2023-05-03T04:10:49;101654.91;;;10.99;88.97
43707;BME280;61348;53.392;-6.248;2023-05-03T04:13:16;101658.50;;;11.00;88.86
43707;BME280;61348;53.392;-6.248;2023-05-03T04:15:42;101649.06;;;11.01;89.15
43707;BME280;61348;53.392;-6.248;2023-05-03T04:18:09;101652.31;;;11.03;89.04
43707;BME280;61348;53.392;-6.248;2023-05-03T04:20:37;101650.03;;;11.05;89.20
43707;BME280;61348;53.392;-6.248;2023-05-03T04:23:04;101639.75;;;11.06;89.13
43707;BME280;61348;53.392;-6.248;2023-05-03T04:25:30;101644.47;;;11.05;89.07
43707;BME280;61348;53.392;-6.248;2023-05-03T04:27:57;101646.13;;;11.06;89.24
43707;BME280;61348;53.392;-6.248;2023-05-03T04:30:24;101638.94;;;11.05;89.09
43707;BME280;61348;53.392;-6.248;2023-05-03T04:32:51;101646.13;;;11.06;89.39
43707;BME280;61348;53.392;-6.248;2023-05-03T04:35:19;101648.88;;;11.06;89.44
43707;BME280;61348;53.392;-6.248;2023-05-03T04:37:46;101656.69;;;11.04;89.41
43707;BME280;61348;53.392;-6.248;2023-05-03T04:40:13;101646.78;;;11.03;89.45
43707;BME280;61348;53.392;-6.248;2023-05-03T04:42:40;101654.59;;;11.01;89.54
43707;BME280;61348;53.392;-6.248;2023-05-03T04:45:08;101657.69;;;10.99;89.70
43707;BME280;61348;53.392;-6.248;2023-05-03T04:47:35;101659.63;;;10.99;89.62
43707;BME280;61348;53.392;-6.248;2023-05-03T04:50:02;101656.84;;;10.99;89.71
43707;BME280;61348;53.392;-6.248;2023-05-03T04:52:30;101654.75;;;10.96;89.39
43707;BME280;61348;53.392;-6.248;2023-05-03T04:54:57;101654.25;;;10.94;89.63
43707;BME280;61348;53.392;-6.248;2023-05-03T04:57:24;101657.03;;;10.94;89.58
43707;BME280;61348;53.392;-6.248;2023-05-03T04:59:51;101661.75;;;10.93;89.67
43707;BME280;61348;53.392;-6.248;2023-05-03T05:02:19;101663.72;;;10.93;89.48
43707;BME280;61348;53.392;-6.248;2023-05-03T05:04:47;101660.44;;;10.91;89.62
43707;BME280;61348;53.392;-6.248;2023-05-03T05:07:14;101664.84;;;10.92;89.75
43707;BME280;61348;53.392;-6.248;2023-05-03T05:09:41;101662.09;;;10.92;89.85
43707;BME280;61348;53.392;-6.248;2023-05-03T05:12:07;101658.19;;;10.93;89.97
43707;BME280;61348;53.392;-6.248;2023-05-03T05:14:37;101666.50;;;10.93;89.88
43707;BME280;61348;53.392;-6.248;2023-05-03T05:17:04;101660.94;;;10.93;89.92
43707;BME280;61348;53.392;-6.248;2023-05-03T05:19:31;101658.97;;;10.93;90.14
43707;BME280;61348;53.392;-6.248;2023-05-03T05:21:58;101659.78;;;10.94;90.33
43707;BME280;61348;53.392;-6.248;2023-05-03T05:24:24;101664.69;;;10.97;90.45
43707;BME280;61348;53.392;-6.248;2023-05-03T05:26:51;101663.56;;;10.98;90.46
43707;BME280;61348;53.392;-6.248;2023-05-03T05:29:18;101666.47;;;11.01;90.50
43707;BME280;61348;53.392;-6.248;2023-05-03T05:31:44;101673.84;;;11.06;90.65
43707;BME280;61348;53.392;-6.248;2023-05-03T05:34:11;101667.63;;;11.09;90.81
43707;BME280;61348;53.392;-6.248;2023-05-03T05:36:38;101674.16;;;11.13;90.90
43707;BME280;61348;53.392;-6.248;2023-05-03T05:39:05;101679.03;;;11.16;90.88
43707;BME280;61348;53.392;-6.248;2023-05-03T05:41:32;101672.03;;;11.19;91.05
43707;BME280;61348;53.392;-6.248;2023-05-03T05:43:59;101679.34;;;11.23;90.91
43707;BME280;61348;53.392;-6.248;2023-05-03T05:46:26;101681.97;;;11.28;91.20
43707;BME280;61348;53.392;-6.248;2023-05-03T05:48:52;101682.59;;;11.34;91.30
43707;BME280;61348;53.392;-6.248;2023-05-03T05:51:19;101691.28;;;11.41;91.35
43707;BME280;61348;53.392;-6.248;2023-05-03T05:53:46;101692.22;;;11.45;91.33
43707;BME280;61348;53.392;-6.248;2023-05-03T05:56:13;101686.19;;;11.51;91.40
43707;BME280;61348;53.392;-6.248;2023-05-03T05:58:39;101684.84;;;11.57;91.44
43707;BME280;61348;53.392;-6.248;2023-05-03T06:01:06;101693.00;;;11.62;91.54
43707;BME280;61348;53.392;-6.248;2023-05-03T06:03:33;101694.00;;;11.67;91.49
43707;BME280;61348;53.392;-6.248;2023-05-03T06:06:01;101695.50;;;11.73;91.54
43707;BME280;61348;53.392;-6.248;2023-05-03T06:08:27;101697.56;;;11.76;91.74
43707;BME280;61348;53.392;-6.248;2023-05-03T06:10:54;101694.00;;;11.75;91.76
43707;BME280;61348;53.392;-6.248;2023-05-03T06:13:21;101694.50;;;11.77;91.90
43707;BME280;61348;53.392;-6.248;2023-05-03T06:15:48;101701.00;;;11.81;91.80
43707;BME280;61348;53.392;-6.248;2023-05-03T06:18:15;101696.25;;;11.82;91.82
43707;BME280;61348;53.392;-6.248;2023-05-03T06:20:42;101687.28;;;11.85;91.86
43707;BME280;61348;53.392;-6.248;2023-05-03T06:23:08;101688.25;;;11.89;91.90
43707;BME280;61348;53.392;-6.248;2023-05-03T06:25:35;101688.09;;;11.94;92.06
43707;BME280;61348;53.392;-6.248;2023-05-03T06:28:03;101692.16;;;11.96;92.10
43707;BME280;61348;53.392;-6.248;2023-05-03T06:30:30;101680.06;;;12.01;91.90
43707;BME280;61348;53.392;-6.248;2023-05-03T06:32:57;101681.81;;;12.05;91.64
43707;BME280;61348;53.392;-6.248;2023-05-03T06:35:24;101674.78;;;12.08;91.85
43707;BME280;61348;53.392;-6.248;2023-05-03T06:37:50;101684.09;;;12.12;91.54
43707;BME280;61348;53.392;-6.248;2023-05-03T06:40:17;101685.03;;;12.16;91.44
43707;BME280;61348;53.392;-6.248;2023-05-03T06:42:44;101678.84;;;12.19;91.32
43707;BME280;61348;53.392;-6.248;2023-05-03T06:45:11;101675.03;;;12.23;91.06
43707;BME280;61348;53.392;-6.248;2023-05-03T06:47:38;101675.69;;;12.29;91.26
43707;BME280;61348;53.392;-6.248;2023-05-03T06:50:08;101669.13;;;12.34;90.91
43707;BME280;61348;53.392;-6.248;2023-05-03T06:52:36;101676.47;;;12.38;91.03
43707;BME280;61348;53.392;-6.248;2023-05-03T06:55:03;101675.78;;;12.41;90.44
43707;BME280;61348;53.392;-6.248;2023-05-03T06:57:30;101676.25;;;12.43;90.44
43707;BME280;61348;53.392;-6.248;2023-05-03T06:59:57;101676.06;;;12.48;90.27
43707;BME280;61348;53.392;-6.248;2023-05-03T07:02:24;101684.22;;;12.53;90.07
43707;BME280;61348;53.392;-6.248;2023-05-03T07:04:52;101675.69;;;12.58;89.93
43707;BME280;61348;53.392;-6.248;2023-05-03T07:07:19;101679.44;;;12.62;89.66
43707;BME280;61348;53.392;-6.248;2023-05-03T07:09:46;101684.31;;;12.65;89.29
43707;BME280;61348;53.392;-6.248;2023-05-03T07:12:13;101676.91;;;12.69;89.23
43707;BME280;61348;53.392;-6.248;2023-05-03T07:14:40;101691.44;;;12.75;89.07
43707;BME280;61348;53.392;-6.248;2023-05-03T07:17:07;101685.22;;;12.78;88.92
43707;BME280;61348;53.392;-6.248;2023-05-03T07:19:34;101682.09;;;12.79;88.50
43707;BME280;61348;53.392;-6.248;2023-05-03T07:22:02;101678.97;;;12.81;88.36
43707;BME280;61348;53.392;-6.248;2023-05-03T07:24:29;101671.78;;;12.80;87.87
43707;BME280;61348;53.392;-6.248;2023-05-03T07:26:56;101682.09;;;12.79;87.34
43707;BME280;61348;53.392;-6.248;2023-05-03T07:29:24;101679.31;;;12.79;86.78
43707;BME280;61348;53.392;-6.248;2023-05-03T07:31:53;101681.41;;;12.82;86.69
43707;BME280;61348;53.392;-6.248;2023-05-03T07:34:20;101677.50;;;12.83;86.38
43707;BME280;61348;53.392;-6.248;2023-05-03T07:36:47;101678.63;;;12.82;86.10
43707;BME280;61348;53.392;-6.248;2023-05-03T07:39:14;101679.91;;;12.85;85.76
43707;BME280;61348;53.392;-6.248;2023-05-03T07:41:40;101680.88;;;12.89;85.52
43707;BME280;61348;53.392;-6.248;2023-05-03T07:44:07;101672.19;;;12.91;85.20
43707;BME280;61348;53.392;-6.248;2023-05-03T07:46:34;101679.72;;;12.90;85.24
43707;BME280;61348;53.392;-6.248;2023-05-03T07:49:03;101673.84;;;12.92;85.08
43707;BME280;61348;53.392;-6.248;2023-05-03T07:51:37;101676.25;;;12.93;84.96
43707;BME280;61348;53.392;-6.248;2023-05-03T07:54:05;101668.28;;;12.92;84.77
43707;BME280;61348;53.392;-6.248;2023-05-03T07:56:32;101673.84;;;12.92;84.68
43707;BME280;61348;53.392;-6.248;2023-05-03T07:58:59;101671.84;;;12.92;84.55
43707;BME280;61348;53.392;-6.248;2023-05-03T08:01:28;101673.84;;;12.92;84.53
43707;BME280;61348;53.392;-6.248;2023-05-03T08:03:55;101661.75;;;12.88;84.17
43707;BME280;61348;53.392;-6.248;2023-05-03T08:06:24;101670.44;;;12.86;84.17
43707;BME280;61348;53.392;-6.248;2023-05-03T08:08:51;101672.88;;;12.88;84.28
43707;BME280;61348;53.392;-6.248;2023-05-03T08:11:18;101675.19;;;12.86;83.97
43707;BME280;61348;53.392;-6.248;2023-05-03T08:13:45;101661.59;;;12.84;84.11
43707;BME280;61348;53.392;-6.248;2023-05-03T08:16:12;101674.22;;;12.81;84.32
43707;BME280;61348;53.392;-6.248;2023-05-03T08:18:39;101674.22;;;12.81;84.38
43707;BME280;61348;53.392;-6.248;2023-05-03T08:21:06;101682.56;;;12.81;84.36
43707;BME280;61348;53.392;-6.248;2023-05-03T08:23:35;101668.81;;;12.85;84.24
43707;BME280;61348;53.392;-6.248;2023-05-03T08:26:02;101670.56;;;12.90;84.22
43707;BME280;61348;53.392;-6.248;2023-05-03T08:28:29;101668.41;;;12.95;84.33
43707;BME280;61348;53.392;-6.248;2023-05-03T08:30:56;101672.47;;;12.98;84.26
43707;BME280;61348;53.392;-6.248;2023-05-03T08:33:23;101669.47;;;13.03;84.38
43707;BME280;61348;53.392;-6.248;2023-05-03T08:35:50;101670.94;;;13.09;84.39
43707;BME280;61348;53.392;-6.248;2023-05-03T08:38:17;101665.63;;;13.16;84.25
43707;BME280;61348;53.392;-6.248;2023-05-03T08:40:47;101654.44;;;13.24;84.21
43707;BME280;61348;53.392;-6.248;2023-05-03T08:43:19;101668.13;;;13.29;84.11
43707;BME280;61348;53.392;-6.248;2023-05-03T08:45:47;101664.59;;;13.41;84.01
43707;BME280;61348;53.392;-6.248;2023-05-03T08:48:14;101665.81;;;13.52;83.98
43707;BME280;61348;53.392;-6.248;2023-05-03T08:50:43;101666.88;;;13.60;83.67
43707;BME280;61348;53.392;-6.248;2023-05-03T08:53:10;101664.00;;;13.68;83.31
43707;BME280;61348;53.392;-6.248;2023-05-03T08:55:37;101661.00;;;13.73;82.91
43707;BME280;61348;53.392;-6.248;2023-05-03T08:58:06;101662.06;;;13.81;82.96
43707;BME280;61348;53.392;-6.248;2023-05-03T09:00:36;101670.31;;;13.89;82.90
43707;BME280;61348;53.392;-6.248;2023-05-03T09:03:03;101664.06;;;13.92;82.67
43707;BME280;61348;53.392;-6.248;2023-05-03T09:05:32;101663.34;;;13.95;82.28
43707;BME280;61348;53.392;-6.248;2023-05-03T09:08:08;101666.63;;;13.97;82.36
43707;BME280;61348;53.392;-6.248;2023-05-03T09:10:39;101658.50;;;14.04;82.11
43707;BME280;61348;53.392;-6.248;2023-05-03T09:13:08;101667.22;;;14.15;82.01
43707;BME280;61348;53.392;-6.248;2023-05-03T09:15:35;101672.06;;;14.30;81.89
43707;BME280;61348;53.392;-6.248;2023-05-03T09:18:07;101667.34;;;14.43;81.67
43707;BME280;61348;53.392;-6.248;2023-05-03T09:20:35;101670.38;;;14.50;81.50
43707;BME280;61348;53.392;-6.248;2023-05-03T09:23:02;101665.97;;;14.49;81.33
43707;BME280;61348;53.392;-6.248;2023-05-03T09:25:48;101661.56;;;14.48;81.34
43707;BME280;61348;53.392;-6.248;2023-05-03T09:28:18;101663.53;;;14.47;81.29
43707;BME280;61348;53.392;-6.248;2023-05-03T09:30:46;101654.94;;;14.52;81.22
43707;BME280;61348;53.392;-6.248;2023-05-03T09:33:13;101655.50;;;14.58;81.29
43707;BME280;61348;53.392;-6.248;2023-05-03T09:35:57;101653.88;;;14.57;80.75
43707;BME280;61348;53.392;-6.248;2023-05-03T09:38:32;101660.47;;;14.64;80.83
43707;BME280;61348;53.392;-6.248;2023-05-03T09:40:59;101650.16;;;14.77;80.44
43707;BME280;61348;53.392;-6.248;2023-05-03T09:43:32;101644.09;;;14.87;80.31
43707;BME280;61348;53.392;-6.248;2023-05-03T09:46:11;101647.28;;;15.01;79.99
43707;BME280;61348;53.392;-6.248;2023-05-03T09:48:39;101640.53;;;15.02;79.11
43707;BME280;61348;53.392;-6.248;2023-05-03T09:51:07;101650.38;;;15.12;78.96
43707;BME280;61348;53.392;-6.248;2023-05-03T09:53:35;101637.69;;;15.14;78.13
43707;BME280;61348;53.392;-6.248;2023-05-03T09:56:04;101646.75;;;15.23;77.78
43707;BME280;61348;53.392;-6.248;2023-05-03T09:58:32;101653.47;;;15.22;77.29
43707;BME280;61348;53.392;-6.248;2023-05-03T10:01:01;101640.06;;;15.40;77.24
43707;BME280;61348;53.392;-6.248;2023-05-03T10:03:36;101636.72;;;15.78;76.34
43707;BME280;61348;53.392;-6.248;2023-05-03T10:06:07;101639.44;;;16.06;75.21
43707;BME280;61348;53.392;-6.248;2023-05-03T10:08:41;101649.78;;;16.05;74.81
43707;BME280;61348;53.392;-6.248;2023-05-03T10:11:14;101652.97;;;15.88;74.65
43707;BME280;61348;53.392;-6.248;2023-05-03T10:13:42;101654.69;;;15.65;74.78
43707;BME280;61348;53.392;-6.248;2023-05-03T10:16:12;101642.72;;;15.49;74.82
43707;BME280;61348;53.392;-6.248;2023-05-03T10:18:47;101653.88;;;15.49;74.87
43707;BME280;61348;53.392;-6.248;2023-05-03T10:22:01;101649.78;;;15.74;74.12
43707;BME280;61348;53.392;-6.248;2023-05-03T10:24:28;101661.41;;;16.07;73.30
43707;BME280;61348;53.392;-6.248;2023-05-03T10:26:55;101657.81;;;16.38;72.53
43707;BME280;61348;53.392;-6.248;2023-05-03T10:32:01;101659.38;;;17.05;69.89
43707;BME280;61348;53.392;-6.248;2023-05-03T10:34:32;101657.31;;;17.21;69.65
43707;BME280;61348;53.392;-6.248;2023-05-03T10:37:07;101658.34;;;17.13;69.21
43707;BME280;61348;53.392;-6.248;2023-05-03T10:39:35;101661.00;;;17.06;69.13
43707;BME280;61348;53.392;-6.248;2023-05-03T10:42:05;101649.94;;;17.13;68.89
43707;BME280;61348;53.392;-6.248;2023-05-03T10:44:37;101654.22;;;17.26;68.89
43707;BME280;61348;53.392;-6.248;2023-05-03T10:47:11;101647.97;;;17.33;68.45
43707;BME280;61348;53.392;-6.248;2023-05-03T10:49:38;101651.94;;;17.32;68.29
43707;BME280;61348;53.392;-6.248;2023-05-03T10:52:57;101651.72;;;17.40;68.41
43707;BME280;61348;53.392;-6.248;2023-05-03T10:55:18;101643.31;;;17.40;68.21
43707;BME280;61348;53.392;-6.248;2023-05-03T10:57:47;101642.88;;;17.38;67.97
43707;BME280;61348;53.392;-6.248;2023-05-03T11:00:32;101632.72;;;17.30;67.99
43707;BME280;61348;53.392;-6.248;2023-05-03T11:05:29;101655.94;;;17.12;67.54
43707;BME280;61348;53.392;-6.248;2023-05-03T11:08:17;101645.53;;;16.93;67.99
43707;BME280;61348;53.392;-6.248;2023-05-03T11:10:44;101649.91;;;16.75;67.44
43707;BME280;61348;53.392;-6.248;2023-05-03T11:13:12;101652.38;;;16.45;67.60
43707;BME280;61348;53.392;-6.248;2023-05-03T11:15:40;101642.06;;;16.14;67.38
43707;BME280;61348;53.392;-6.248;2023-05-03T11:18:08;101644.31;;;16.09;67.93
43707;BME280;61348;53.392;-6.248;2023-05-03T11:20:37;101646.56;;;16.03;67.91
43707;BME280;61348;53.392;-6.248;2023-05-03T11:23:04;101643.13;;;15.94;67.72
43707;BME280;61348;53.392;-6.248;2023-05-03T11:25:33;101630.88;;;15.83;67.75
43707;BME280;61348;53.392;-6.248;2023-05-03T11:28:00;101632.94;;;15.86;67.92
43707;BME280;61348;53.392;-6.248;2023-05-03T11:30:28;101628.44;;;15.81;67.86
43707;BME280;61348;53.392;-6.248;2023-05-03T11:32:55;101624.56;;;15.86;68.00
43707;BME280;61348;53.392;-6.248;2023-05-03T11:35:22;101628.97;;;15.87;67.85
43707;BME280;61348;53.392;-6.248;2023-05-03T11:37:52;101627.91;;;15.92;68.09
43707;BME280;61348;53.392;-6.248;2023-05-03T11:40:19;101624.03;;;15.96;68.00
43707;BME280;61348;53.392;-6.248;2023-05-03T11:43:12;101623.66;;;15.98;68.08
43707;BME280;61348;53.392;-6.248;2023-05-03T11:45:41;101627.19;;;15.95;67.80
43707;BME280;61348;53.392;-6.248;2023-05-03T11:48:13;101623.56;;;15.94;68.06
43707;BME280;61348;53.392;-6.248;2023-05-03T11:50:51;101617.63;;;15.96;67.94
43707;BME280;61348;53.392;-6.248;2023-05-03T11:53:24;101626.38;;;15.94;67.62
43707;BME280;61348;53.392;-6.248;2023-05-03T11:55:52;101626.38;;;15.94;67.35
43707;BME280;61348;53.392;-6.248;2023-05-03T11:58:24;101614.31;;;15.90;67.44
43707;BME280;61348;53.392;-6.248;2023-05-03T12:00:55;101609.16;;;15.92;67.40
43707;BME280;61348;53.392;-6.248;2023-05-03T12:03:26;101606.81;;;15.94;67.42
43707;BME280;61348;53.392;-6.248;2023-05-03T12:05:58;101610.63;;;16.02;67.50
43707;BME280;61348;53.392;-6.248;2023-05-03T12:08:31;101602.03;;;16.10;67.17
43707;BME280;61348;53.392;-6.248;2023-05-03T12:11:02;101602.75;;;16.07;66.85
43707;BME280;61348;53.392;-6.248;2023-05-03T12:13:36;101600.94;;;15.99;66.70
43707;BME280;61348;53.392;-6.248;2023-05-03T12:16:07;101590.25;;;16.01;66.38
43707;BME280;61348;53.392;-6.248;2023-05-03T12:18:47;101595.13;;;16.04;66.27
43707;BME280;61348;53.392;-6.248;2023-05-03T12:21:21;101593.09;;;16.05;66.03
43707;BME280;61348;53.392;-6.248;2023-05-03T12:23:52;101576.28;;;16.01;65.72
43707;BME280;61348;53.392;-6.248;2023-05-03T12:26:22;101582.03;;;16.08;65.88
43707;BME280;61348;53.392;-6.248;2023-05-03T12:28:51;101576.16;;;16.13;65.72
43707;BME280;61348;53.392;-6.248;2023-05-03T12:31:22;101580.94;;;16.13;65.53
43707;BME280;61348;53.392;-6.248;2023-05-03T12:33:49;101584.53;;;16.13;65.54
43707;BME280;61348;53.392;-6.248;2023-05-03T12:36:36;101583.53;;;16.21;65.61
43707;BME280;61348;53.392;-6.248;2023-05-03T12:39:04;101571.66;;;16.24;65.35
43707;BME280;61348;53.392;-6.248;2023-05-03T12:41:35;101575.31;;;16.28;65.44
43707;BME280;61348;53.392;-6.248;2023-05-03T12:44:05;101574.59;;;16.31;65.16
43707;BME280;61348;53.392;-6.248;2023-05-03T12:46:36;101573.88;;;16.34;65.16
43707;BME280;61348;53.392;-6.248;2023-05-03T12:49:04;101576.31;;;16.36;64.96
43707;BME280;61348;53.392;-6.248;2023-05-03T12:51:34;101574.31;;;16.36;64.97
43707;BME280;61348;53.392;-6.248;2023-05-03T12:54:01;101573.78;;;16.47;65.04
43707;BME280;61348;53.392;-6.248;2023-05-03T12:56:29;101569.69;;;16.60;64.86
43707;BME280;61348;53.392;-6.248;2023-05-03T12:58:59;101567.88;;;16.67;64.65